Time;durP1;ratioP1;P1;durP2;ratioP2;P2;SDS_P1;SDS_P2;PMS_P1;PMS_P2;Temp;Humidity;BMP_temperature;BMP_pressure;BME280_temperature;BME280_humidity;BME280_pressure;Samples;Min_cycle;Max_cycle;Signal;HPM_P1;HPM_P2
2022/08/30 00:01:24;;;;;;;3.58;3.38;;;23.10;99.90;;;;;;5024720;28;20223;-71
2022/08/30 00:03:53;;;;;;;3.40;3.20;;;23.10;99.90;;;;;;5023802;28;20275;-71
2022/08/30 00:06:22;;;;;;;4.22;3.92;;;23.10;99.90;;;;;;5025970;28;20676;-70
2022/08/30 00:08:49;;;;;;;4.80;4.40;;;23.00;99.90;;;;;;5028861;28;20192;-71
2022/08/30 00:11:21;;;;;;;5.13;4.55;;;22.90;99.90;;;;;;5025628;28;20281;-71
2022/08/30 00:13:51;;;;;;;4.10;3.80;;;22.70;99.90;;;;;;5024097;28;20277;-71
2022/08/30 00:16:18;;;;;;;4.20;3.90;;;22.60;99.90;;;;;;5025484;28;20251;-71
2022/08/30 00:18:46;;;;;;;3.50;3.30;;;22.60;99.90;;;;;;5025616;28;20196;-70
2022/08/30 00:21:14;;;;;;;3.85;3.55;;;22.60;99.90;;;;;;5016710;28;20219;-69
2022/08/30 00:23:42;;;;;;;3.70;3.40;;;22.60;99.90;;;;;;5026958;28;20220;-70
2022/08/30 00:26:09;;;;;;;3.67;3.38;;;22.70;99.90;;;;;;5025801;28;20219;-71
2022/08/30 00:28:37;;;;;;;3.47;3.17;;;22.70;99.90;;;;;;5027937;28;20654;-71
2022/08/30 00:31:06;;;;;;;3.92;3.63;;;22.80;99.90;;;;;;5022575;28;20224;-71
2022/08/30 00:33:33;;;;;;;4.10;3.80;;;22.80;99.90;;;;;;5027313;28;20198;-72
2022/08/30 00:36:00;;;;;;;3.42;3.17;;;22.70;99.90;;;;;;5024262;28;20789;-71
2022/08/30 00:38:29;;;;;;;3.95;3.55;;;22.70;99.90;;;;;;5025414;28;20239;-71
2022/08/30 00:40:58;;;;;;;3.47;3.20;;;22.70;99.90;;;;;;5024137;28;20222;-71
2022/08/30 00:43:27;;;;;;;3.40;3.20;;;22.70;99.90;;;;;;5025946;28;20212;-71
2022/08/30 00:45:55;;;;;;;3.63;3.33;;;22.70;99.90;;;;;;5027146;28;20215;-71
2022/08/30 00:48:22;;;;;;;3.28;3.08;;;22.70;99.90;;;;;;5035494;28;20644;-71
2022/08/30 00:50:55;;;;;;;3.20;2.90;;;22.70;99.90;;;;;;5043484;28;20218;-71
2022/08/30 00:53:26;;;;;;;3.28;3.08;;;22.70;99.90;;;;;;5049084;28;20644;-71
2022/08/30 00:55:55;;;;;;;3.60;3.30;;;22.70;99.90;;;;;;5049967;28;20219;-69
2022/08/30 00:58:27;;;;;;;3.40;3.10;;;22.70;99.90;;;;;;5041610;28;20199;-71
2022/08/30 01:00:57;;;;;;;3.03;2.83;;;22.80;99.90;;;;;;5041513;28;20211;-71
2022/08/30 01:03:24;;;;;;;2.90;2.70;;;22.80;99.90;;;;;;5042247;28;20219;-71
2022/08/30 01:05:52;;;;;;;3.00;2.80;;;22.90;99.90;;;;;;5043724;28;20221;-71
2022/08/30 01:08:20;;;;;;;3.33;3.13;;;23.00;99.90;;;;;;5044207;28;20191;-71
2022/08/30 01:10:48;;;;;;;3.03;2.83;;;23.00;99.90;;;;;;5044861;28;20254;-72
2022/08/30 01:13:17;;;;;;;3.10;2.90;;;23.00;99.90;;;;;;5043089;28;20195;-71
2022/08/30 01:15:45;;;;;;;3.17;2.90;;;22.90;99.90;;;;;;5044246;28;20215;-71
2022/08/30 01:18:13;;;;;;;3.00;2.80;;;22.90;99.90;;;;;;5045248;28;20302;-72
2022/08/30 01:20:48;;;;;;;2.90;2.70;;;23.00;99.90;;;;;;5044564;28;20222;-71
2022/08/30 01:23:19;;;;;;;3.50;3.20;;;23.00;99.90;;;;;;5043710;28;20226;-69
2022/08/30 01:25:49;;;;;;;3.15;2.95;;;22.90;99.90;;;;;;5043537;28;20226;-69
2022/08/30 01:28:20;;;;;;;4.00;3.70;;;22.80;99.90;;;;;;5044383;28;20199;-69
2022/08/30 01:30:47;;;;;;;4.05;3.75;;;22.80;99.90;;;;;;5042854;28;20227;-68
2022/08/30 01:33:15;;;;;;;4.25;3.95;;;22.70;99.90;;;;;;5042203;28;20541;-69
2022/08/30 01:35:47;;;;;;;3.28;3.08;;;22.60;99.90;;;;;;5040574;28;20223;-69
2022/08/30 01:38:17;;;;;;;3.80;3.50;;;22.50;99.90;;;;;;5042475;28;20198;-72
2022/08/30 01:40:45;;;;;;;3.55;3.30;;;22.50;99.90;;;;;;5039827;28;20219;-71
2022/08/30 01:43:13;;;;;;;3.30;3.10;;;22.50;99.90;;;;;;5041016;28;20223;-71
2022/08/30 01:45:41;;;;;;;3.50;3.20;;;22.50;99.90;;;;;;5035649;28;20215;-72
2022/08/30 01:48:08;;;;;;;3.45;3.25;;;22.50;99.90;;;;;;5043310;28;20660;-71
2022/08/30 01:50:35;;;;;;;3.40;3.20;;;22.50;99.90;;;;;;5040295;28;20225;-71
2022/08/30 01:53:04;;;;;;;3.53;3.30;;;22.50;99.90;;;;;;5044862;28;20194;-71
2022/08/30 01:55:32;;;;;;;3.85;3.65;;;22.40;99.90;;;;;;5043297;28;20218;-71
2022/08/30 01:57:59;;;;;;;3.25;3.05;;;22.40;99.90;;;;;;5044621;28;20230;-71
2022/08/30 02:00:27;;;;;;;3.55;3.25;;;22.40;99.90;;;;;;5044109;28;20234;-71
2022/08/30 02:02:54;;;;;;;3.35;3.15;;;22.40;99.90;;;;;;5043296;28;20230;-71
2022/08/30 02:05:21;;;;;;;3.70;3.40;;;22.40;99.90;;;;;;5046757;28;20214;-72
2022/08/30 02:07:48;;;;;;;3.25;3.05;;;22.40;99.90;;;;;;5033370;28;20227;-71
2022/08/30 02:10:15;;;;;;;3.47;3.28;;;22.30;99.90;;;;;;5031815;28;20230;-71
2022/08/30 02:12:43;;;;;;;3.22;3.03;;;22.40;99.90;;;;;;5047322;28;20194;-71
2022/08/30 02:15:12;;;;;;;3.13;2.92;;;22.40;99.90;;;;;;5033456;28;20649;-71
2022/08/30 02:17:39;;;;;;;3.10;2.90;;;22.40;99.90;;;;;;5040390;28;20247;-71
2022/08/30 02:20:07;;;;;;;3.53;3.33;;;22.40;99.90;;;;;;5042149;28;20226;-71
2022/08/30 02:22:35;;;;;;;3.42;3.17;;;22.40;99.90;;;;;;5030987;28;20199;-71
2022/08/30 02:25:03;;;;;;;3.20;3.00;;;22.40;99.90;;;;;;5035254;28;20227;-71
2022/08/30 02:27:30;;;;;;;3.63;3.33;;;22.50;99.90;;;;;;5035145;28;20578;-69
2022/08/30 02:29:59;;;;;;;3.40;3.20;;;22.40;99.90;;;;;;5038438;28;20235;-70
2022/08/30 02:32:26;;;;;;;3.38;3.17;;;22.40;99.90;;;;;;5040724;28;20207;-71
2022/08/30 02:34:53;;;;;;;3.33;3.13;;;22.40;99.90;;;;;;5039480;28;20222;-71
2022/08/30 02:37:20;;;;;;;3.50;3.30;;;22.40;99.90;;;;;;5045015;28;20222;-71
2022/08/30 02:39:47;;;;;;;3.58;3.35;;;22.40;99.90;;;;;;5045356;28;20219;-70
2022/08/30 02:42:14;;;;;;;3.25;3.05;;;22.30;99.90;;;;;;5042406;28;20203;-72
2022/08/30 02:44:42;;;;;;;3.17;2.97;;;22.30;99.90;;;;;;5041152;28;20233;-71
2022/08/30 02:47:11;;;;;;;3.72;3.42;;;22.30;99.90;;;;;;5060047;28;20226;-70
2022/08/30 02:49:38;;;;;;;3.90;3.60;;;22.30;99.90;;;;;;5066697;28;20217;-70
2022/08/30 02:52:05;;;;;;;3.50;3.20;;;22.20;99.90;;;;;;5072172;28;20211;-71
2022/08/30 02:54:33;;;;;;;3.47;3.17;;;22.20;99.90;;;;;;5064449;28;20305;-70
2022/08/30 02:57:03;;;;;;;3.83;3.53;;;22.20;99.90;;;;;;5069121;28;20222;-70
2022/08/30 02:59:31;;;;;;;3.35;3.15;;;22.20;99.90;;;;;;5070392;28;20222;-71
2022/08/30 03:01:58;;;;;;;4.20;3.90;;;22.20;99.90;;;;;;5067827;28;20281;-70
2022/08/30 03:04:27;;;;;;;4.78;4.38;;;22.30;99.90;;;;;;5069749;28;20222;-71
2022/08/30 03:06:54;;;;;;;4.38;4.00;;;22.10;99.90;;;;;;5070636;28;20229;-71
2022/08/30 03:09:22;;;;;;;3.80;3.50;;;22.00;99.90;;;;;;5071640;28;20198;-71
2022/08/30 03:11:49;;;;;;;4.03;3.72;;;22.00;99.90;;;;;;5068558;28;20278;-71
2022/08/30 03:14:16;;;;;;;3.70;3.50;;;22.00;99.90;;;;;;5066823;28;20259;-71
2022/08/30 03:16:43;;;;;;;3.22;3.03;;;22.00;99.90;;;;;;5070933;28;20225;-71
2022/08/30 03:19:10;;;;;;;3.70;3.40;;;22.10;99.90;;;;;;5064591;28;20205;-71
2022/08/30 03:21:39;;;;;;;3.40;3.20;;;22.10;99.90;;;;;;5068173;28;20191;-71
2022/08/30 03:24:06;;;;;;;3.45;3.25;;;22.20;99.90;;;;;;5068087;28;20218;-71
2022/08/30 03:26:33;;;;;;;4.40;4.05;;;22.20;99.90;;;;;;5063465;28;20218;-71
2022/08/30 03:29:01;;;;;;;4.07;3.78;;;22.20;99.90;;;;;;5068078;28;20198;-71
2022/08/30 03:31:28;;;;;;;4.60;4.30;;;22.10;99.90;;;;;;5066625;28;20805;-72
2022/08/30 03:33:55;;;;;;;4.22;3.92;;;22.00;99.90;;;;;;5067437;28;20198;-69
2022/08/30 03:36:22;;;;;;;4.25;3.85;;;21.90;99.90;;;;;;5065950;28;20272;-71
2022/08/30 03:38:51;;;;;;;3.72;3.50;;;21.90;99.90;;;;;;5069208;28;20197;-71
2022/08/30 03:41:18;;;;;;;3.78;3.47;;;21.90;99.90;;;;;;5062209;28;20219;-71
2022/08/30 03:43:46;;;;;;;4.65;4.20;;;21.90;99.90;;;;;;5066912;28;20222;-71
2022/08/30 03:46:14;;;;;;;5.57;5.18;;;21.80;99.90;;;;;;5065567;28;20593;-71
2022/08/30 03:48:41;;;;;;;4.90;4.50;;;21.60;99.90;;;;;;5063801;28;20260;-70
2022/08/30 03:51:08;;;;;;;4.30;4.00;;;21.50;99.90;;;;;;5067185;28;20218;-68
2022/08/30 03:53:35;;;;;;;4.45;4.05;;;21.30;99.90;;;;;;5066736;28;20194;-71
2022/08/30 03:56:04;;;;;;;3.50;3.30;;;21.30;99.90;;;;;;5065520;28;20762;-72
2022/08/30 03:58:31;;;;;;;3.55;3.35;;;21.30;99.90;;;;;;5064506;28;20217;-71
2022/08/30 04:00:58;;;;;;;3.50;3.28;;;21.40;99.90;;;;;;5064338;28;20221;-71
2022/08/30 04:03:25;;;;;;;3.80;3.50;;;21.40;99.90;;;;;;5069625;28;20198;-71
2022/08/30 04:05:53;;;;;;;3.03;2.83;;;21.40;99.90;;;;;;5064095;28;20598;-71
2022/08/30 04:08:20;;;;;;;3.03;2.83;;;21.50;99.90;;;;;;5063705;28;20736;-72
2022/08/30 04:10:48;;;;;;;3.53;3.22;;;21.60;99.90;;;;;;5065747;28;20653;-71
2022/08/30 04:13:17;;;;;;;3.20;3.00;;;21.50;99.90;;;;;;5067155;28;20646;-72
2022/08/30 04:15:44;;;;;;;2.70;2.60;;;21.20;99.90;;;;;;5066231;28;20217;-71
2022/08/30 04:18:11;;;;;;;3.08;2.88;;;21.00;99.90;;;;;;5064419;28;20199;-72
2022/08/30 04:20:38;;;;;;;3.00;2.80;;;20.90;99.90;;;;;;5066372;28;20592;-71
2022/08/30 04:23:06;;;;;;;2.60;2.40;;;20.80;99.90;;;;;;5067061;28;20224;-71
2022/08/30 04:25:34;;;;;;;2.65;2.45;;;20.80;99.90;;;;;;5063135;28;20305;-71
2022/08/30 04:28:01;;;;;;;2.20;2.10;;;20.70;99.90;;;;;;5066300;28;20221;-72
2022/08/30 04:30:30;;;;;;;2.08;1.98;;;20.60;99.90;;;;;;5065961;28;20228;-71
2022/08/30 04:32:58;;;;;;;2.45;2.25;;;20.50;99.90;;;;;;5066205;28;20201;-71
2022/08/30 04:35:25;;;;;;;2.05;1.95;;;20.50;99.90;;;;;;5064370;28;20944;-71
2022/08/30 04:37:52;;;;;;;2.30;2.10;;;20.50;99.90;;;;;;5066597;28;20237;-71
2022/08/30 04:40:20;;;;;;;2.28;2.17;;;20.60;99.90;;;;;;5068723;28;20221;-73
2022/08/30 04:42:47;;;;;;;1.88;1.77;;;20.70;99.90;;;;;;5068784;28;20225;-71
2022/08/30 04:45:16;;;;;;;2.10;1.90;;;20.70;99.90;;;;;;5062957;28;20248;-71
2022/08/30 04:47:44;;;;;;;2.13;2.03;;;20.80;99.90;;;;;;5065769;28;20696;-72
2022/08/30 04:50:15;;;;;;;2.33;2.10;;;20.80;99.90;;;;;;5067360;28;20222;-72
2022/08/30 04:52:42;;;;;;;2.35;2.13;;;20.80;99.90;;;;;;5069510;28;20207;-72
2022/08/30 04:55:11;;;;;;;1.90;1.80;;;20.80;99.90;;;;;;5066739;28;20218;-72
2022/08/30 04:57:39;;;;;;;2.10;2.00;;;20.80;99.90;;;;;;5070073;28;20222;-72
2022/08/30 05:00:10;;;;;;;2.50;2.30;;;20.70;99.90;;;;;;5067468;28;20240;-71
2022/08/30 05:02:37;;;;;;;5.82;2.35;;;20.50;99.90;;;;;;5062087;28;20202;-71
2022/08/30 05:07:51;;;;;;;2.60;2.38;;;20.20;99.90;;;;;;5067835;28;20232;-71
2022/08/30 05:10:18;;;;;;;2.30;2.10;;;20.20;99.90;;;;;;5061786;28;20225;-71
2022/08/30 05:12:45;;;;;;;2.58;2.08;;;20.50;99.90;;;;;;5065807;28;20653;-71
2022/08/30 05:15:13;;;;;;;3.10;2.90;;;20.70;99.90;;;;;;5063249;28;21783;-70
2022/08/30 05:17:41;;;;;;;2.38;2.17;;;20.90;99.90;;;;;;5065048;28;20237;-71
2022/08/30 05:20:11;;;;;;;2.45;2.00;;;20.90;99.90;;;;;;5063952;28;20222;-71
2022/08/30 05:22:39;;;;;;;2.15;2.05;;;21.00;99.90;;;;;;5063814;28;20244;-71
2022/08/30 05:25:08;;;;;;;2.13;2.03;;;21.00;99.90;;;;;;5066347;28;20243;-71
2022/08/30 05:27:35;;;;;;;2.05;1.95;;;21.10;99.90;;;;;;5063035;28;21855;-71
2022/08/30 05:30:02;;;;;;;2.10;1.98;;;21.20;99.90;;;;;;5066010;28;20223;-71
2022/08/30 05:32:29;;;;;;;2.35;2.15;;;21.20;99.90;;;;;;5066039;28;20206;-71
2022/08/30 05:34:56;;;;;;;2.53;2.33;;;21.30;99.90;;;;;;5067954;28;20240;-71
2022/08/30 05:37:24;;;;;;;2.50;2.30;;;21.20;99.90;;;;;;5067313;28;20232;-71
2022/08/30 05:39:52;;;;;;;2.30;2.10;;;21.10;99.90;;;;;;5068000;28;20626;-71
2022/08/30 05:42:19;;;;;;;1.85;1.75;;;21.20;99.90;;;;;;5067231;28;20214;-71
2022/08/30 05:44:51;;;;;;;1.75;1.65;;;21.20;99.90;;;;;;5068118;28;20218;-71
2022/08/30 05:47:18;;;;;;;2.60;2.30;;;21.30;99.90;;;;;;5083888;23;20245;-77
2022/08/30 05:49:45;;;;;;;2.00;1.90;;;21.20;99.90;;;;;;5048485;28;20223;-78
2022/08/30 05:52:14;;;;;;;3.20;2.45;;;20.90;99.90;;;;;;5053414;28;20206;-77
2022/08/30 05:54:42;;;;;;;2.92;2.30;;;20.80;99.90;;;;;;5052375;28;20222;-76
2022/08/30 05:57:09;;;;;;;2.05;1.95;;;20.70;99.90;;;;;;5049505;28;20596;-76
2022/08/30 05:59:37;;;;;;;2.10;2.00;;;20.70;99.90;;;;;;5046502;28;20692;-77
2022/08/30 06:02:06;;;;;;;2.20;2.00;;;20.80;99.90;;;;;;5047780;28;20199;-77
2022/08/30 06:04:33;;;;;;;2.50;2.30;;;20.80;99.90;;;;;;5039916;28;20672;-77
2022/08/30 06:07:00;;;;;;;2.03;1.83;;;20.80;99.90;;;;;;5045899;28;20198;-77
2022/08/30 06:09:27;;;;;;;2.63;2.42;;;20.90;99.90;;;;;;5048625;28;20199;-77
2022/08/30 06:11:56;;;;;;;2.75;1.92;;;21.10;99.90;;;;;;5046306;28;20195;-76
2022/08/30 06:14:23;;;;;;;2.22;2.03;;;21.20;99.90;;;;;;5049631;28;20218;-78
2022/08/30 06:16:50;;;;;;;2.00;1.90;;;21.40;99.90;;;;;;5054153;28;20198;-78
2022/08/30 06:19:18;;;;;;;2.00;1.80;;;21.50;99.90;;;;;;5065059;28;20201;-76
2022/08/30 06:21:49;;;;;;;2.03;1.92;;;21.80;99.90;;;;;;5053935;28;20661;-77
2022/08/30 06:24:16;;;;;;;2.10;2.00;;;22.00;99.90;;;;;;5053330;28;20207;-77
2022/08/30 06:26:46;;;;;;;2.00;1.90;;;22.20;99.90;;;;;;5046807;28;20203;-77
2022/08/30 06:29:18;;;;;;;2.03;1.92;;;22.30;99.90;;;;;;5045996;28;20195;-77
2022/08/30 06:31:45;;;;;;;2.10;2.00;;;22.30;99.90;;;;;;5048206;28;20673;-77
2022/08/30 06:34:12;;;;;;;1.95;1.80;;;22.30;99.90;;;;;;5043405;28;20203;-77
2022/08/30 06:36:39;;;;;;;2.50;1.98;;;22.20;99.90;;;;;;5049556;28;20199;-77
2022/08/30 06:39:07;;;;;;;2.00;1.88;;;22.10;99.90;;;;;;5048226;28;20214;-76
2022/08/30 06:41:35;;;;;;;2.70;2.50;;;21.90;99.90;;;;;;5051068;28;20216;-76
2022/08/30 06:44:04;;;;;;;2.78;2.58;;;21.60;99.90;;;;;;5046398;28;20270;-77
2022/08/30 06:46:35;;;;;;;2.58;2.38;;;21.60;99.90;;;;;;5040168;28;20219;-77
2022/08/30 06:49:02;;;;;;;2.65;2.30;;;21.60;99.90;;;;;;5061894;28;20222;-76
2022/08/30 06:51:33;;;;;;;2.28;2.05;;;21.80;99.90;;;;;;5067289;28;20218;-76
2022/08/30 06:54:00;;;;;;;2.20;2.10;;;22.10;99.90;;;;;;5064014;28;20279;-76
2022/08/30 06:56:28;;;;;;;2.50;2.10;;;22.10;99.90;;;;;;5068267;28;20223;-76
2022/08/30 06:58:55;;;;;;;2.28;2.17;;;22.10;99.90;;;;;;5058489;28;20242;-76
2022/08/30 07:01:25;;;;;;;1.92;1.83;;;22.10;99.90;;;;;;5056970;28;20218;-79
2022/08/30 07:03:55;;;;;;;2.05;1.95;;;22.10;99.90;;;;;;5084689;28;20197;-76
2022/08/30 07:06:23;;;;;;;2.22;2.00;;;22.20;99.90;;;;;;5073950;28;20246;-74
2022/08/30 07:08:51;;;;;;;2.30;2.10;;;22.20;99.90;;;;;;5072159;28;20214;-76
2022/08/30 07:11:27;;;;;;;2.08;1.98;;;22.20;99.90;;;;;;5074646;28;20218;-76
2022/08/30 07:13:54;;;;;;;2.67;2.47;;;22.30;99.90;;;;;;5061661;28;20202;-76
2022/08/30 07:16:22;;;;;;;2.55;2.35;;;22.50;99.90;;;;;;5073924;28;20221;-76
2022/08/30 07:18:53;;;;;;;4.05;2.45;;;22.50;99.90;;;;;;5073469;28;20319;-76
2022/08/30 07:21:25;;;;;;;2.78;2.08;;;22.60;99.90;;;;;;5084127;28;20263;-76
2022/08/30 07:23:53;;;;;;;2.55;2.35;;;22.60;99.90;;;;;;5074411;28;20194;-76
2022/08/30 07:26:24;;;;;;;2.22;2.10;;;22.50;99.90;;;;;;5078482;28;20638;-76
2022/08/30 07:28:51;;;;;;;2.40;2.20;;;22.60;99.90;;;;;;5075173;28;20214;-76
2022/08/30 07:31:20;;;;;;;2.45;2.25;;;22.80;99.90;;;;;;5059090;28;20230;-76
2022/08/30 07:33:47;;;;;;;2.08;1.92;;;23.10;99.90;;;;;;5060941;28;20209;-76
2022/08/30 07:36:16;;;;;;;2.20;2.10;;;23.40;99.90;;;;;;5085165;28;20214;-75
2022/08/30 07:38:45;;;;;;;2.50;2.30;;;23.60;99.90;;;;;;5082728;28;20240;-75
2022/08/30 07:41:21;;;;;;;4.68;2.45;;;23.90;99.90;;;;;;5068360;28;20610;-76
2022/08/30 07:43:48;;;;;;;3.90;2.50;;;24.20;99.90;;;;;;5085811;28;20246;-76
2022/08/30 07:46:16;;;;;;;2.67;2.47;;;24.60;99.90;;;;;;5068304;28;20600;-76
2022/08/30 07:48:43;;;;;;;2.70;2.50;;;24.80;99.90;;;;;;5068423;28;20227;-77
2022/08/30 07:51:13;;;;;;;2.88;2.58;;;24.80;99.90;;;;;;5044343;28;20222;-76
2022/08/30 07:53:40;;;;;;;2.65;2.45;;;24.90;99.90;;;;;;5050735;28;20217;-77
2022/08/30 07:56:09;;;;;;;3.10;2.90;;;25.20;99.90;;;;;;5060908;28;21009;-78
2022/08/30 07:58:36;;;;;;;3.53;3.22;;;25.30;99.90;;;;;;5052406;28;20235;-75
2022/08/30 08:01:05;;;;;;;3.40;3.10;;;25.40;99.90;;;;;;5068041;28;20630;-77
2022/08/30 08:03:32;;;;;;;3.05;2.75;;;25.50;99.90;;;;;;5050290;28;20195;-77
2022/08/30 08:06:02;;;;;;;3.47;3.17;;;25.70;99.90;;;;;;5042259;28;20222;-76
2022/08/30 08:08:30;;;;;;;3.00;2.80;;;26.10;99.90;;;;;;5043775;28;20226;-78
2022/08/30 08:10:57;;;;;;;3.13;2.83;;;26.30;99.90;;;;;;5048515;28;20404;-76
2022/08/30 08:13:26;;;;;;;2.60;2.38;;;26.30;99.90;;;;;;5050772;28;20207;-77
2022/08/30 08:15:53;;;;;;;2.90;2.70;;;26.20;99.90;;;;;;5046973;28;20509;-77
2022/08/30 08:18:20;;;;;;;2.90;2.70;;;26.20;99.90;;;;;;5043014;28;20532;-78
2022/08/30 08:20:47;;;;;;;3.30;3.00;;;26.40;99.90;;;;;;5048997;28;20219;-78
2022/08/30 08:23:15;;;;;;;2.70;2.50;;;26.40;99.90;;;;;;5067986;28;20609;-78
2022/08/30 08:25:42;;;;;;;2.53;2.30;;;26.30;99.90;;;;;;5064105;28;20214;-76
2022/08/30 08:28:10;;;;;;;3.70;3.10;;;26.20;99.90;;;;;;5046976;28;20217;-76
2022/08/30 08:30:39;;;;;;;6.38;2.90;;;26.20;99.90;;;;;;5052705;28;20224;-77
2022/08/30 08:33:06;;;;;;;2.65;2.45;;;26.20;99.90;;;;;;5052756;28;20241;-76
2022/08/30 08:35:34;;;;;;;4.55;3.05;;;26.30;99.90;;;;;;5066050;28;20217;-75
2022/08/30 08:38:01;;;;;;;4.18;2.90;;;26.30;99.90;;;;;;5050618;28;20218;-75
2022/08/30 08:40:30;;;;;;;3.22;2.92;;;26.40;99.90;;;;;;5061995;28;20218;-75
2022/08/30 08:43:05;;;;;;;4.10;3.20;;;26.40;99.90;;;;;;5060610;28;20206;-78
2022/08/30 08:45:47;;;;;;;4.70;3.15;;;26.40;99.90;;;;;;5037318;28;20215;-77
2022/08/30 08:48:29;;;;;;;3.33;3.13;;;26.50;99.90;;;;;;5048896;28;20312;-77
2022/08/30 08:53:43;;;;;;;3.67;3.08;;;27.00;99.90;;;;;;5050323;28;20675;-76
2022/08/30 08:56:13;;;;;;;3.80;3.45;;;26.70;99.90;;;;;;5045071;28;20229;-77
2022/08/30 08:58:45;;;;;;;4.00;3.60;;;26.50;99.90;;;;;;5049398;28;20757;-76
2022/08/30 09:01:16;;;;;;;3.55;3.35;;;26.30;99.90;;;;;;5052890;28;20646;-78
2022/08/30 09:03:44;;;;;;;3.47;3.17;;;26.30;99.90;;;;;;5059329;28;20850;-77
2022/08/30 09:06:42;;;;;;;4.13;3.72;;;26.50;99.90;;;;;;5066312;28;20226;-75
2022/08/30 09:09:09;;;;;;;3.42;3.20;;;26.70;99.90;;;;;;5049989;28;20434;-78
2022/08/30 09:11:37;;;;;;;3.30;3.00;;;26.90;99.90;;;;;;5064455;28;20600;-77
2022/08/30 09:14:09;;;;;;;3.30;3.10;;;27.20;99.90;;;;;;5057888;28;20195;-77
2022/08/30 09:16:56;;;;;;;5.60;3.38;;;27.30;99.90;;;;;;5054303;28;20234;-77
2022/08/30 09:19:30;;;;;;;3.00;2.75;;;27.50;99.90;;;;;;5057131;28;20198;-77
2022/08/30 09:21:59;;;;;;;3.50;3.20;;;27.60;99.90;;;;;;5066938;28;20208;-77
2022/08/30 09:24:26;;;;;;;3.70;3.40;;;27.90;99.90;;;;;;5063595;28;20195;-77
2022/08/30 09:26:54;;;;;;;3.55;3.35;;;27.90;99.90;;;;;;5051922;28;20219;-76
2022/08/30 09:29:21;;;;;;;3.42;3.08;;;27.80;99.90;;;;;;5053367;28;20195;-77
2022/08/30 09:31:53;;;;;;;4.68;3.83;;;27.80;99.90;;;;;;5051510;28;20354;-78
2022/08/30 09:34:22;;;;;;;4.35;3.67;;;27.90;99.90;;;;;;5057257;28;20202;-76
2022/08/30 09:36:51;;;;;;;4.03;3.22;;;27.90;99.90;;;;;;5052654;28;20195;-76
2022/08/30 09:39:20;;;;;;;3.00;2.80;;;28.10;99.90;;;;;;5054394;28;20220;-77
2022/08/30 09:41:49;;;;;;;3.53;3.22;;;28.40;99.90;;;;;;5063651;28;20202;-75
2022/08/30 09:44:18;;;;;;;3.53;3.22;;;28.30;99.90;;;;;;5049040;28;20256;-77
2022/08/30 09:46:48;;;;;;;3.55;3.28;;;28.30;99.90;;;;;;5050901;28;20225;-76
2022/08/30 09:49:31;;;;;;;3.33;3.13;;;28.30;99.90;;;;;;5045858;28;20348;-79
2022/08/30 09:52:12;;;;;;;3.35;3.15;;;28.20;99.90;;;;;;5061912;28;20201;-76
2022/08/30 09:54:47;;;;;;;3.47;3.17;;;28.20;99.90;;;;;;5073158;28;20280;-76
2022/08/30 09:57:23;;;;;;;3.42;3.08;;;28.20;99.90;;;;;;5073424;28;20206;-78
2022/08/30 10:00:00;;;;;;;3.95;3.30;;;28.30;99.90;;;;;;5065525;28;20699;-77
2022/08/30 10:02:47;;;;;;;3.20;3.00;;;28.40;99.90;;;;;;5073574;28;20182;-77
2022/08/30 10:05:22;;;;;;;3.42;3.22;;;28.30;99.90;;;;;;5068193;28;20221;-76
2022/08/30 10:07:59;;;;;;;3.33;3.03;;;28.50;99.90;;;;;;5070841;28;20210;-76
2022/08/30 10:10:34;;;;;;;3.28;2.97;;;28.70;99.90;;;;;;5073090;28;20229;-77
2022/08/30 10:13:13;;;;;;;4.25;3.15;;;28.70;99.90;;;;;;5080307;28;20190;-76
2022/08/30 10:15:45;;;;;;;3.60;3.30;;;28.60;99.90;;;;;;5072905;28;20595;-75
2022/08/30 10:18:19;;;;;;;4.07;3.08;;;28.60;99.90;;;;;;5074579;28;20608;-77
2022/08/30 10:20:59;;;;;;;3.72;3.42;;;28.70;99.90;;;;;;5063647;28;20219;-76
2022/08/30 10:23:31;;;;;;;3.03;2.80;;;28.70;99.90;;;;;;5066594;28;20208;-78
2022/08/30 10:26:09;;;;;;;3.08;2.88;;;28.90;99.90;;;;;;5094455;28;20595;-76
2022/08/30 10:28:42;;;;;;;3.45;3.15;;;29.00;99.90;;;;;;5088361;28;20217;-77
2022/08/30 10:31:13;;;;;;;2.80;2.60;;;29.40;99.90;;;;;;5074285;28;20711;-76
2022/08/30 10:33:45;;;;;;;3.75;3.42;;;29.60;99.90;;;;;;5054998;28;20228;-76
2022/08/30 10:36:15;;;;;;;2.90;2.70;;;29.50;99.90;;;;;;5069682;28;20588;-76
2022/08/30 10:38:48;;;;;;;3.05;2.85;;;29.40;99.90;;;;;;5065824;28;20219;-77
2022/08/30 10:41:28;;;;;;;2.72;2.53;;;29.30;99.90;;;;;;5057827;28;20843;-78
2022/08/30 10:43:59;;;;;;;3.20;2.90;;;29.60;99.90;;;;;;5070181;28;20190;-77
2022/08/30 10:46:33;;;;;;;3.17;2.92;;;29.70;99.90;;;;;;5087781;28;20221;-76
2022/08/30 10:49:04;;;;;;;2.80;2.60;;;29.70;99.90;;;;;;5073095;28;20642;-77
2022/08/30 10:51:36;;;;;;;3.45;3.17;;;29.50;99.90;;;;;;5057242;28;20618;-76
2022/08/30 10:54:09;;;;;;;3.17;2.67;;;29.30;99.90;;;;;;5057429;28;20573;-77
2022/08/30 10:56:42;;;;;;;2.90;2.70;;;29.20;99.90;;;;;;5060477;28;20222;-78
2022/08/30 10:59:10;;;;;;;2.90;2.25;;;29.20;99.90;;;;;;5056231;28;20209;-76
2022/08/30 11:02:22;;;;;;;2.28;2.13;;;29.30;99.90;;;;;;5070052;28;20203;-76
2022/08/30 11:05:11;;;;;;;2.70;2.50;;;29.20;99.90;;;;;;4985807;28;20311;-79
2022/08/30 11:07:52;;;;;;;2.67;2.45;;;29.20;99.90;;;;;;4979884;28;20672;-78
2022/08/30 11:10:34;;;;;;;2.67;2.47;;;29.30;99.90;;;;;;5025397;28;20226;-76
2022/08/30 11:13:04;;;;;;;2.70;2.50;;;29.40;99.90;;;;;;5065336;28;20191;-76
2022/08/30 11:15:35;;;;;;;2.80;2.60;;;29.50;99.90;;;;;;5060112;28;20306;-77
2022/08/30 11:18:05;;;;;;;3.13;2.30;;;29.60;99.90;;;;;;5056272;28;20214;-79
2022/08/30 11:20:38;;;;;;;2.63;2.22;;;29.60;99.90;;;;;;5056765;28;20229;-77
2022/08/30 11:23:37;;;;;;;2.58;2.38;;;29.50;99.90;;;;;;5057703;28;20278;-75
2022/08/30 11:26:06;;;;;;;2.67;2.47;;;29.60;99.90;;;;;;4981398;28;20225;-76
2022/08/30 11:29:02;;;;;;;2.20;2.05;;;29.60;99.90;;;;;;5045947;28;20214;-75
2022/08/30 11:31:35;;;;;;;2.10;2.00;;;29.90;99.90;;;;;;5050727;28;20228;-75
2022/08/30 11:34:02;;;;;;;2.10;2.00;;;30.00;99.90;;;;;;5057476;28;20191;-76
2022/08/30 11:37:06;;;;;;;3.15;2.30;;;30.00;99.90;;;;;;5049303;28;20225;-78
2022/08/30 11:39:53;;;;;;;2.45;2.25;;;30.00;99.90;;;;;;5061026;28;20696;-77
2022/08/30 11:42:40;;;;;;;1.98;1.88;;;30.00;99.90;;;;;;5067845;28;20199;-77
2022/08/30 11:45:45;;;;;;;2.47;2.28;;;30.10;99.90;;;;;;5062286;28;20654;-77
2022/08/30 11:48:43;;;;;;;2.30;2.10;;;30.30;99.90;;;;;;5059314;28;20638;-76
2022/08/30 11:51:34;;;;;;;2.28;2.17;;;30.50;99.90;;;;;;5074721;22;20225;-71
2022/08/30 11:54:08;;;;;;;2.95;2.10;;;30.60;99.90;;;;;;5029893;28;20198;-72
2022/08/30 11:56:49;;;;;;;3.50;2.33;;;30.70;99.90;;;;;;5083688;28;20224;-73
2022/08/30 11:59:28;;;;;;;3.60;2.65;;;30.70;99.90;;;;;;5074890;28;20194;-71
2022/08/30 12:01:56;;;;;;;2.65;2.35;;;30.20;99.90;;;;;;5069379;28;20225;-73
2022/08/30 12:04:36;;;;;;;2.15;2.05;;;30.20;99.90;;;;;;5068015;28;20890;-75
2022/08/30 12:07:04;;;;;;;2.17;2.03;;;30.40;99.90;;;;;;5065340;28;20217;-73
2022/08/30 12:10:04;;;;;;;3.40;2.10;;;31.00;99.90;;;;;;5056116;28;20222;-72
2022/08/30 12:12:54;;;;;;;2.50;2.30;;;31.30;99.90;;;;;;5056749;28;20575;-71
2022/08/30 12:15:47;;;;;;;2.45;2.30;;;31.40;99.90;;;;;;5059797;28;20237;-71
2022/08/30 12:18:27;;;;;;;2.65;2.45;;;31.30;99.90;;;;;;5065280;28;20244;-72
2022/08/30 12:20:55;;;;;;;3.53;2.30;;;31.20;99.90;;;;;;5068900;28;20213;-72
2022/08/30 12:23:33;;;;;;;2.40;2.20;;;31.00;99.90;;;;;;5067934;28;20202;-72
2022/08/30 12:26:20;;;;;;;2.92;2.50;;;30.90;99.90;;;;;;5062189;28;20721;-71
2022/08/30 12:28:50;;;;;;;2.45;2.25;;;30.70;99.90;;;;;;5067169;28;20194;-70
2022/08/30 12:31:20;;;;;;;2.58;2.38;;;30.80;99.90;;;;;;5064979;28;20222;-70
2022/08/30 12:33:52;;;;;;;3.00;2.63;;;30.80;99.90;;;;;;5065244;28;20196;-70
2022/08/30 12:36:33;;;;;;;2.90;2.60;;;31.00;99.90;;;;;;5065997;28;20216;-68
2022/08/30 12:39:12;;;;;;;2.65;2.40;;;30.80;99.90;;;;;;5067555;28;20201;-73
2022/08/30 12:41:40;;;;;;;2.80;2.60;;;30.60;99.90;;;;;;5056541;28;20226;-79
2022/08/30 12:44:14;;;;;;;2.97;2.63;;;30.20;99.90;;;;;;5072590;28;20269;-83
2022/08/30 12:46:42;;;;;;;3.03;2.65;;;30.00;99.90;;;;;;5080197;28;20210;-76
2022/08/30 12:49:09;;;;;;;4.03;2.50;;;29.90;99.90;;;;;;5065765;28;20920;-70
2022/08/30 12:51:40;;;;;;;3.50;2.60;;;29.80;99.90;;;;;;5064265;28;20222;-69
2022/08/30 12:54:15;;;;;;;2.40;2.30;;;29.60;99.90;;;;;;5067512;28;20691;-71
2022/08/30 12:57:01;;;;;;;3.08;2.78;;;29.60;99.90;;;;;;5067392;28;20232;-70
2022/08/30 12:59:46;;;;;;;5.75;2.97;;;29.60;99.90;;;;;;5061406;28;20225;-71
2022/08/30 13:02:17;;;;;;;2.95;2.75;;;29.40;99.90;;;;;;5063232;28;20213;-71
2022/08/30 13:04:46;;;;;;;3.05;2.80;;;29.40;99.90;;;;;;5057722;28;20229;-71
2022/08/30 13:07:29;;;;;;;3.78;2.85;;;29.10;99.90;;;;;;5063392;28;20213;-72
2022/08/30 13:10:17;;;;;;;3.13;2.78;;;29.10;99.90;;;;;;5061101;28;20228;-70
2022/08/30 13:13:00;;;;;;;3.20;2.90;;;29.10;99.90;;;;;;5062107;28;20226;-70